createdAt,value
2019-01-04T00:04:37.841Z,100.00
2019-01-04T00:09:42.270Z,100.00
2019-01-04T00:14:46.357Z,100.00
2019-01-04T00:19:50.403Z,100.00
2019-01-04T00:24:54.439Z,100.00
2019-01-04T00:29:58.580Z,100.00
2019-01-04T00:35:02.619Z,100.00
2019-01-04T00:40:08.034Z,100.00
2019-01-04T00:45:12.220Z,100.00
2019-01-04T00:50:16.414Z,100.00
2019-01-04T00:56:10.057Z,100.00
2019-01-04T01:02:04.764Z,100.00
2019-01-04T01:07:42.834Z,100.00
2019-01-04T01:13:38.689Z,100.00
2019-01-04T01:19:21.362Z,100.00
2019-01-04T01:25:23.989Z,100.00
2019-01-04T01:31:04.719Z,100.00
2019-01-04T01:36:55.460Z,100.00
2019-01-04T01:42:38.073Z,100.00
2019-01-04T01:47:49.609Z,100.00
2019-01-04T01:52:53.673Z,100.00
2019-01-04T01:57:57.759Z,100.00
2019-01-04T02:03:01.899Z,100.00
2019-01-04T02:08:06.009Z,100.00
2019-01-04T02:13:10.059Z,100.00
2019-01-04T02:18:14.413Z,100.00
2019-01-04T02:23:18.470Z,100.00
2019-01-04T02:28:22.551Z,100.00
2019-01-04T02:33:26.580Z,100.00
2019-01-04T02:38:30.618Z,100.00
2019-01-04T02:43:34.716Z,100.00
2019-01-04T02:48:39.026Z,100.00
2019-01-04T02:53:43.342Z,100.00
2019-01-04T02:58:47.416Z,100.00
2019-01-04T03:03:51.493Z,100.00
2019-01-04T03:08:55.557Z,100.00
2019-01-04T03:13:59.869Z,100.00
2019-01-04T03:19:04.228Z,100.00
2019-01-04T03:24:08.531Z,100.00
2019-01-04T03:29:13.177Z,100.00
2019-01-04T03:34:17.256Z,100.00
2019-01-04T03:39:21.255Z,100.00
2019-01-04T03:44:25.339Z,100.00
2019-01-04T03:49:29.439Z,100.00
2019-01-04T03:54:33.465Z,100.00
2019-01-04T03:59:37.540Z,100.00
2019-01-04T04:04:41.574Z,100.00
2019-01-04T04:09:45.659Z,100.00
2019-01-04T04:14:49.721Z,100.00
2019-01-04T04:19:53.774Z,100.00
2019-01-04T04:24:57.824Z,100.00
2019-01-04T04:30:02.169Z,100.00
2019-01-04T04:35:06.230Z,100.00
2019-01-04T04:40:10.310Z,100.00
2019-01-04T04:45:14.380Z,100.00
2019-01-04T04:50:18.808Z,100.00
2019-01-04T04:55:22.864Z,100.00
2019-01-04T05:00:26.897Z,100.00
2019-01-04T05:05:30.960Z,100.00
2019-01-04T05:10:35.003Z,100.00
2019-01-04T05:15:39.558Z,100.00
2019-01-04T05:20:43.937Z,100.00
2019-01-04T05:25:48.002Z,100.00
2019-01-04T05:30:52.032Z,100.00
2019-01-04T05:35:56.097Z,100.00
2019-01-04T05:41:00.150Z,99.98
2019-01-04T05:46:04.223Z,99.74
2019-01-04T05:51:08.226Z,99.65
2019-01-04T05:56:12.834Z,99.32
2019-01-04T06:01:16.928Z,99.28
2019-01-04T06:06:21.003Z,97.96
2019-01-04T06:11:25.038Z,97.66
2019-01-04T06:16:29.159Z,97.44
2019-01-04T06:21:33.464Z,97.91
2019-01-04T06:26:37.515Z,97.96
2019-01-04T06:31:41.945Z,98.00
2019-01-04T06:36:45.955Z,96.93
2019-01-04T06:41:50.282Z,97.70
2019-01-04T06:47:12.841Z,97.34
2019-01-04T06:52:17.333Z,97.62
2019-01-04T06:57:21.392Z,97.88
2019-01-04T07:02:25.449Z,97.79
2019-01-04T07:07:29.514Z,97.35
2019-01-04T07:12:33.566Z,97.06
2019-01-04T07:17:37.633Z,96.55
2019-01-04T07:22:41.715Z,97.12
2019-01-04T07:27:45.728Z,97.24
2019-01-04T07:32:50.117Z,97.56
2019-01-04T07:37:54.148Z,97.96
2019-01-04T07:42:59.682Z,100.00
2019-01-04T07:48:03.773Z,100.00
2019-01-04T07:53:07.792Z,100.00
2019-01-04T07:58:11.827Z,100.00
2019-01-04T08:03:23.985Z,100.00
2019-01-04T08:08:28.052Z,100.00
2019-01-04T08:13:32.312Z,100.00
2019-01-04T08:18:36.344Z,100.00
2019-01-04T08:23:40.383Z,100.00
2019-01-04T08:28:44.484Z,100.00
2019-01-04T08:33:48.581Z,100.00
2019-01-04T08:38:52.613Z,100.00
2019-01-04T08:43:56.770Z,100.00
2019-01-04T08:49:00.783Z,100.00
2019-01-04T08:54:07.279Z,100.00
2019-01-04T08:59:11.384Z,100.00
2019-01-04T09:04:15.426Z,100.00
2019-01-04T09:09:19.494Z,100.00
2019-01-04T09:14:23.555Z,100.00
2019-01-04T09:19:28.234Z,100.00
2019-01-04T09:24:32.461Z,100.00
2019-01-04T09:29:36.546Z,100.00
2019-01-04T09:34:40.566Z,100.00
2019-01-04T09:39:44.644Z,100.00
2019-01-04T09:44:48.651Z,100.00
2019-01-04T09:49:52.703Z,100.00
2019-01-04T09:54:56.773Z,100.00
2019-01-04T10:00:00.881Z,100.00
2019-01-04T10:05:05.527Z,100.00
2019-01-04T10:10:10.916Z,100.00
2019-01-04T10:15:15.974Z,100.00
2019-01-04T10:20:20.073Z,100.00
2019-01-04T10:25:24.115Z,100.00
2019-01-04T10:30:28.202Z,100.00
2019-01-04T10:35:32.239Z,100.00
2019-01-04T10:40:36.314Z,100.00
2019-01-04T10:45:40.363Z,100.00
2019-01-04T10:50:44.455Z,100.00
2019-01-04T10:55:48.623Z,100.00
2019-01-04T11:00:52.829Z,100.00
2019-01-04T11:05:56.957Z,100.00
2019-01-04T11:11:01.033Z,100.00
2019-01-04T11:16:05.199Z,100.00
2019-01-04T11:21:12.059Z,100.00
2019-01-04T11:26:49.253Z,100.00
2019-01-04T11:32:16.758Z,100.00
2019-01-04T11:37:37.369Z,100.00
2019-01-04T11:43:40.464Z,100.00
2019-01-04T11:49:05.550Z,100.00
2019-01-04T11:54:14.059Z,100.00
2019-01-04T11:59:18.910Z,100.00
2019-01-04T12:04:22.971Z,100.00
2019-01-04T12:09:27.594Z,100.00
2019-01-04T12:14:31.627Z,100.00
2019-01-04T12:19:35.719Z,100.00
2019-01-04T12:24:39.778Z,100.00
2019-01-04T12:29:43.894Z,100.00
2019-01-04T12:34:48.079Z,100.00
2019-01-04T12:39:52.092Z,100.00
2019-01-04T12:44:56.161Z,100.00
2019-01-04T12:50:02.116Z,100.00
2019-01-04T12:55:06.489Z,100.00
2019-01-04T13:00:13.980Z,100.00
2019-01-04T13:05:18.051Z,100.00
2019-01-04T13:10:22.064Z,100.00
2019-01-04T13:15:26.104Z,100.00
2019-01-04T13:20:30.180Z,100.00
2019-01-04T13:25:34.234Z,100.00
2019-01-04T13:30:38.434Z,100.00
2019-01-04T13:35:42.491Z,100.00
2019-01-04T13:40:46.707Z,100.00
2019-01-04T13:45:50.874Z,100.00
2019-01-04T13:50:54.886Z,100.00
2019-01-04T13:55:58.935Z,100.00
2019-01-04T14:01:03.308Z,100.00
2019-01-04T14:06:07.351Z,100.00
2019-01-04T14:11:11.477Z,100.00
2019-01-04T14:16:24.339Z,100.00
2019-01-04T14:21:46.293Z,100.00
2019-01-04T14:26:50.331Z,100.00
2019-01-04T14:31:54.371Z,100.00
2019-01-04T14:36:58.435Z,100.00
2019-01-04T14:42:02.438Z,100.00
2019-01-04T14:47:06.477Z,100.00
2019-01-04T14:52:10.520Z,100.00
2019-01-04T14:57:14.556Z,100.00
2019-01-04T15:02:18.627Z,100.00
2019-01-04T15:07:22.658Z,100.00
2019-01-04T15:12:26.714Z,100.00
2019-01-04T15:17:30.816Z,100.00
2019-01-04T15:22:42.624Z,100.00
2019-01-04T15:27:58.663Z,100.00
2019-01-04T15:33:20.635Z,100.00
2019-01-04T15:38:26.255Z,100.00
2019-01-04T15:43:30.321Z,100.00
2019-01-04T15:48:36.573Z,100.00
2019-01-04T15:53:41.546Z,100.00
2019-01-04T15:58:45.932Z,100.00
2019-01-04T16:03:50.496Z,100.00
2019-01-04T16:08:55.608Z,100.00
2019-01-04T16:14:01.660Z,100.00
2019-01-04T16:19:06.174Z,100.00
2019-01-04T16:24:10.237Z,100.00
2019-01-04T16:29:14.270Z,100.00
2019-01-04T16:34:18.707Z,100.00
2019-01-04T16:39:23.180Z,100.00
2019-01-04T16:44:29.428Z,100.00
2019-01-04T16:49:34.024Z,100.00
2019-01-04T16:54:38.324Z,100.00
2019-01-04T16:59:52.254Z,100.00
2019-01-04T17:05:24.748Z,100.00
2019-01-04T17:10:37.942Z,100.00
2019-01-04T17:15:42.210Z,100.00
2019-01-04T17:20:46.623Z,100.00
2019-01-04T17:25:50.643Z,100.00
2019-01-04T17:30:54.685Z,100.00
2019-01-04T17:35:58.733Z,100.00
2019-01-04T17:41:02.962Z,100.00
2019-01-04T17:46:06.992Z,100.00
2019-01-04T17:51:10.995Z,100.00
2019-01-04T17:56:32.989Z,100.00
2019-01-04T18:01:37.036Z,100.00
2019-01-04T18:06:41.122Z,100.00
2019-01-04T18:12:03.002Z,100.00
2019-01-04T18:17:07.869Z,100.00
2019-01-04T18:22:12.832Z,100.00
2019-01-04T18:27:17.580Z,100.00
2019-01-04T18:32:21.776Z,100.00
2019-01-04T18:37:25.824Z,100.00
2019-01-04T18:42:29.867Z,100.00
2019-01-04T18:47:39.336Z,100.00
2019-01-04T18:52:40.493Z,100.00
2019-01-04T18:57:45.239Z,100.00
2019-01-04T19:02:49.331Z,100.00
2019-01-04T19:07:53.536Z,100.00
2019-01-04T19:12:58.057Z,100.00
2019-01-04T19:18:02.775Z,100.00
2019-01-04T19:23:07.511Z,100.00
2019-01-04T19:28:12.573Z,100.00
2019-01-04T19:33:16.769Z,100.00
2019-01-04T19:38:21.327Z,100.00
2019-01-04T19:43:26.855Z,100.00
2019-01-04T19:48:32.415Z,100.00
2019-01-04T19:53:38.726Z,100.00
2019-01-04T19:58:44.881Z,100.00
2019-01-04T20:03:50.523Z,100.00
2019-01-04T20:09:35.214Z,100.00
2019-01-04T20:15:35.066Z,100.00
2019-01-04T20:20:45.685Z,100.00
2019-01-04T20:25:57.896Z,100.00
2019-01-04T20:31:15.476Z,100.00
2019-01-04T20:36:24.487Z,100.00
2019-01-04T20:41:30.767Z,100.00
2019-01-04T20:46:45.352Z,100.00
2019-01-04T20:51:51.125Z,100.00
2019-01-04T20:56:55.702Z,100.00
2019-01-04T21:02:00.081Z,100.00
2019-01-04T21:07:18.804Z,100.00
2019-01-04T21:12:24.593Z,100.00
2019-01-04T21:17:29.896Z,100.00
2019-01-04T21:22:34.439Z,100.00
2019-01-04T21:27:39.177Z,100.00
2019-01-04T21:32:43.187Z,100.00
2019-01-04T21:37:57.763Z,100.00
2019-01-04T21:43:03.841Z,100.00
2019-01-04T21:48:15.990Z,100.00
2019-01-04T21:53:30.166Z,100.00
2019-01-04T21:58:36.307Z,100.00
2019-01-04T22:03:49.979Z,100.00
2019-01-04T22:08:59.664Z,100.00
2019-01-04T22:14:05.226Z,100.00
2019-01-04T22:19:09.892Z,100.00
2019-01-04T22:24:21.982Z,100.00
2019-01-04T22:29:26.874Z,100.00
2019-01-04T22:34:31.431Z,100.00
2019-01-04T22:39:42.807Z,100.00
2019-01-04T22:44:47.454Z,100.00
2019-01-04T22:49:51.730Z,100.00
2019-01-04T22:54:55.819Z,100.00
2019-01-04T22:59:59.891Z,100.00
2019-01-04T23:05:04.761Z,100.00
2019-01-04T23:10:08.785Z,100.00
2019-01-04T23:15:19.818Z,100.00
2019-01-04T23:20:19.847Z,100.00
2019-01-04T23:25:23.965Z,100.00
2019-01-04T23:30:28.661Z,100.00
2019-01-04T23:35:33.102Z,100.00
2019-01-04T23:40:38.260Z,100.00
2019-01-04T23:45:42.413Z,100.00
2019-01-04T23:50:46.488Z,100.00
2019-01-04T23:55:50.517Z,100.00
